Time;durP1;ratioP1;P1;durP2;ratioP2;P2;SDS_P1;SDS_P2;PMS_P1;PMS_P2;Temp;Humidity;BMP_temperature;BMP_pressure;BME280_temperature;BME280_humidity;BME280_pressure;Samples;Min_cycle;Max_cycle;Signal;HPM_P1;HPM_P2
2023/05/22 00:02:04;;;;;;;11.80;11.20;;;;;;;;;;5028504;28;20103;-63
2023/05/22 00:04:30;;;;;;;11.93;11.32;;;;;;;;;;5030086;28;20060;-64
2023/05/22 00:06:55;;;;;;;11.73;11.15;;;;;;;;;;5027767;28;20044;-64
2023/05/22 00:09:21;;;;;;;11.77;11.23;;;;;;;;;;5029700;28;20400;-64
2023/05/22 00:11:46;;;;;;;12.32;11.73;;;;;;;;;;5029960;28;20498;-64
2023/05/22 00:14:15;;;;;;;13.18;12.48;;;;;;;;;;5030842;28;20056;-64
2023/05/22 00:16:40;;;;;;;12.25;11.65;;;;;;;;;;5022532;28;20087;-64
2023/05/22 00:19:11;;;;;;;13.15;12.45;;;;;;;;;;5024940;28;20555;-64
2023/05/22 00:21:37;;;;;;;12.50;11.90;;;;;;;;;;5027713;28;20101;-65
2023/05/22 00:24:03;;;;;;;12.48;11.88;;;;;;;;;;5021171;28;20108;-64
2023/05/22 00:26:28;;;;;;;12.20;11.60;;;;;;;;;;5027391;28;20029;-64
2023/05/22 00:28:53;;;;;;;12.38;11.77;;;;;;;;;;5029073;28;20021;-63
2023/05/22 00:31:19;;;;;;;12.13;11.52;;;;;;;;;;5022094;28;20026;-64
2023/05/22 00:33:44;;;;;;;12.52;11.88;;;;;;;;;;5036712;28;20095;-64
2023/05/22 00:36:09;;;;;;;11.73;11.20;;;;;;;;;;5028068;28;20120;-64
2023/05/22 00:38:36;;;;;;;12.07;11.48;;;;;;;;;;5026631;28;20164;-64
2023/05/22 00:41:02;;;;;;;12.10;11.50;;;;;;;;;;5029008;28;20025;-63
2023/05/22 00:43:28;;;;;;;12.07;11.48;;;;;;;;;;5031637;28;20020;-63
2023/05/22 00:45:53;;;;;;;12.00;11.40;;;;;;;;;;5025555;28;20493;-63
2023/05/22 00:48:22;;;;;;;12.88;12.18;;;;;;;;;;5026988;28;20116;-63
2023/05/22 00:50:52;;;;;;;12.70;12.10;;;;;;;;;;5022171;28;20076;-64
2023/05/22 00:53:19;;;;;;;12.15;11.55;;;;;;;;;;5035054;28;20028;-63
2023/05/22 00:55:44;;;;;;;12.75;12.05;;;;;;;;;;5025462;28;20397;-63
2023/05/22 00:58:12;;;;;;;12.45;11.85;;;;;;;;;;5031638;28;20016;-63
2023/05/22 01:00:40;;;;;;;12.90;12.20;;;;;;;;;;5026907;28;20025;-64
2023/05/22 01:03:06;;;;;;;12.60;12.00;;;;;;;;;;5024994;28;20026;-64
2023/05/22 01:05:32;;;;;;;13.38;12.68;;;;;;;;;;5023904;28;20132;-64
2023/05/22 01:07:57;;;;;;;13.00;12.30;;;;;;;;;;5025312;28;20027;-65
2023/05/22 01:10:23;;;;;;;12.52;11.93;;;;;;;;;;5032571;28;20037;-64
2023/05/22 01:12:48;;;;;;;12.30;11.70;;;;;;;;;;5024211;28;20036;-62
2023/05/22 01:15:16;;;;;;;12.77;12.13;;;;;;;;;;5022204;28;20022;-63
2023/05/22 01:17:53;;;;;;;13.10;12.40;;;;;;;;;;5018409;28;20539;-63
2023/05/22 01:20:21;;;;;;;12.20;11.60;;;;;;;;;;5020607;28;20033;-63
2023/05/22 01:23:07;;;;;;;12.50;11.90;;;;;;;;;;5022439;28;20026;-64
2023/05/22 01:25:42;;;;;;;12.57;11.98;;;;;;;;;;5019784;28;20091;-63
2023/05/22 01:28:07;;;;;;;;;;;;;;;;;;5041946;28;20580;-63
2023/05/22 01:30:41;;;;;;;12.87;12.17;;;;;;;;;;5022489;28;19995;-64
2023/05/22 01:33:07;;;;;;;12.75;12.13;;;;;;;;;;5029609;28;20429;-63
2023/05/22 01:35:33;;;;;;;13.32;12.63;;;;;;;;;;5025252;28;20044;-63
2023/05/22 01:37:59;;;;;;;12.93;12.23;;;;;;;;;;5022474;28;20024;-63
2023/05/22 01:40:26;;;;;;;11.80;11.25;;;;;;;;;;5021411;28;20018;-64
2023/05/22 01:42:51;;;;;;;12.55;11.95;;;;;;;;;;5030456;28;20170;-64
2023/05/22 01:45:16;;;;;;;12.70;12.10;;;;;;;;;;5027489;28;20118;-64
2023/05/22 01:47:42;;;;;;;12.50;11.90;;;;;;;;;;5018956;28;20393;-64
2023/05/22 01:50:08;;;;;;;13.20;12.50;;;;;;;;;;5028296;28;20029;-63
2023/05/22 01:52:34;;;;;;;12.85;12.20;;;;;;;;;;5031501;28;20021;-63
2023/05/22 01:55:12;;;;;;;12.10;11.50;;;;;;;;;;5021127;28;20018;-64
2023/05/22 01:57:55;;;;;;;12.70;12.10;;;;;;;;;;5024866;28;20101;-64
2023/05/22 02:00:21;;;;;;;12.52;11.93;;;;;;;;;;5024232;28;20499;-64
2023/05/22 02:02:57;;;;;;;13.35;12.65;;;;;;;;;;5028782;28;20025;-63
2023/05/22 02:05:23;;;;;;;12.75;12.15;;;;;;;;;;5028017;28;20524;-64
2023/05/22 02:07:49;;;;;;;12.95;12.30;;;;;;;;;;5034595;28;20112;-64
2023/05/22 02:10:14;;;;;;;12.95;12.25;;;;;;;;;;5027694;28;20514;-63
2023/05/22 02:12:40;;;;;;;13.25;12.55;;;;;;;;;;5022566;28;20052;-63
2023/05/22 02:15:07;;;;;;;13.40;12.70;;;;;;;;;;5022613;28;20025;-64
2023/05/22 02:17:41;;;;;;;13.20;12.50;;;;;;;;;;5027305;28;20044;-64
2023/05/22 02:20:12;;;;;;;;;;;;;;;;;;5019412;28;20025;-64
2023/05/22 02:22:38;;;;;;;12.38;11.77;;;;;;;;;;5029511;28;19917;-64
2023/05/22 02:25:07;;;;;;;13.40;12.70;;;;;;;;;;5028727;28;20381;-64
2023/05/22 02:27:33;;;;;;;14.05;13.25;;;;;;;;;;5022529;28;20030;-63
2023/05/22 02:29:59;;;;;;;13.35;12.65;;;;;;;;;;5018864;28;20171;-64
2023/05/22 02:32:24;;;;;;;13.38;12.68;;;;;;;;;;5031068;28;20429;-64
2023/05/22 02:34:50;;;;;;;13.45;12.75;;;;;;;;;;5020951;28;20504;-64
2023/05/22 02:37:15;;;;;;;12.48;11.88;;;;;;;;;;5026673;28;20674;-65
2023/05/22 02:39:40;;;;;;;13.20;12.50;;;;;;;;;;5030395;28;20049;-64
2023/05/22 02:42:06;;;;;;;13.20;12.50;;;;;;;;;;5030666;28;20534;-64
2023/05/22 02:44:31;;;;;;;12.23;11.63;;;;;;;;;;5026981;28;20014;-64
2023/05/22 02:46:56;;;;;;;12.50;11.90;;;;;;;;;;5036984;28;20048;-64
2023/05/22 02:49:22;;;;;;;12.65;12.05;;;;;;;;;;5033288;28;20534;-64
2023/05/22 02:51:47;;;;;;;13.02;12.32;;;;;;;;;;5023570;28;20052;-64
2023/05/22 02:54:13;;;;;;;12.98;12.27;;;;;;;;;;5029322;28;20021;-64
2023/05/22 02:56:38;;;;;;;12.85;12.15;;;;;;;;;;5030612;28;20047;-64
2023/05/22 02:59:04;;;;;;;13.40;12.70;;;;;;;;;;5019222;28;20569;-64
2023/05/22 03:01:30;;;;;;;12.57;11.98;;;;;;;;;;5033809;28;20026;-64
2023/05/22 03:03:56;;;;;;;12.25;11.65;;;;;;;;;;5028583;28;20037;-64
2023/05/22 03:06:22;;;;;;;12.23;11.63;;;;;;;;;;5030136;28;20481;-64
2023/05/22 03:08:47;;;;;;;12.32;11.73;;;;;;;;;;5028426;28;20086;-64
2023/05/22 03:11:12;;;;;;;12.25;11.65;;;;;;;;;;5032461;28;20025;-64
2023/05/22 03:13:38;;;;;;;12.25;11.65;;;;;;;;;;5036564;28;20065;-64
2023/05/22 03:16:03;;;;;;;12.20;11.60;;;;;;;;;;5030087;28;20021;-63
2023/05/22 03:18:29;;;;;;;12.23;11.63;;;;;;;;;;5030887;28;20025;-63
2023/05/22 03:20:54;;;;;;;11.48;10.98;;;;;;;;;;5036350;28;20646;-64
2023/05/22 03:23:20;;;;;;;12.63;12.02;;;;;;;;;;5029760;28;20040;-64
2023/05/22 03:25:46;;;;;;;12.43;11.82;;;;;;;;;;5025603;28;20030;-63
2023/05/22 03:28:11;;;;;;;12.60;12.00;;;;;;;;;;5029423;28;20417;-63
2023/05/22 03:30:36;;;;;;;12.68;12.07;;;;;;;;;;5030154;28;20018;-63
2023/05/22 03:33:02;;;;;;;12.63;12.02;;;;;;;;;;5034483;28;20024;-63
2023/05/22 03:35:27;;;;;;;12.20;11.60;;;;;;;;;;5031071;28;20233;-64
2023/05/22 03:37:53;;;;;;;12.30;11.70;;;;;;;;;;5022105;28;20042;-64
2023/05/22 03:40:18;;;;;;;12.07;11.52;;;;;;;;;;5030550;28;20030;-65
2023/05/22 03:42:43;;;;;;;12.32;11.73;;;;;;;;;;5033036;28;20513;-66
2023/05/22 03:45:09;;;;;;;12.50;11.90;;;;;;;;;;5028315;28;20032;-65
2023/05/22 03:47:34;;;;;;;12.55;11.95;;;;;;;;;;5023269;28;20440;-65
2023/05/22 03:49:59;;;;;;;12.27;11.68;;;;;;;;;;5025135;28;20028;-65
2023/05/22 03:52:25;;;;;;;12.27;11.67;;;;;;;;;;5026909;28;20036;-65
2023/05/22 03:54:50;;;;;;;12.80;12.20;;;;;;;;;;5027935;28;20333;-65
2023/05/22 03:57:18;;;;;;;12.70;12.10;;;;;;;;;;5028820;28;20275;-64
2023/05/22 03:59:44;;;;;;;12.88;12.27;;;;;;;;;;5025160;28;20113;-63
2023/05/22 04:02:11;;;;;;;11.90;11.40;;;;;;;;;;5026655;28;20048;-63
2023/05/22 04:04:37;;;;;;;12.60;12.00;;;;;;;;;;5034217;28;20096;-64
2023/05/22 04:07:03;;;;;;;12.23;11.68;;;;;;;;;;5027533;28;20443;-63
2023/05/22 04:09:30;;;;;;;11.93;11.43;;;;;;;;;;5033929;28;20033;-63
2023/05/22 04:11:55;;;;;;;12.38;11.77;;;;;;;;;;5033072;28;20040;-64
2023/05/22 04:14:20;;;;;;;12.20;11.70;;;;;;;;;;5031835;28;20584;-64
2023/05/22 04:16:46;;;;;;;12.35;11.77;;;;;;;;;;5031359;28;20053;-62
2023/05/22 04:19:12;;;;;;;12.10;11.60;;;;;;;;;;5032408;28;20097;-62
2023/05/22 04:21:38;;;;;;;12.57;11.98;;;;;;;;;;5030006;28;20045;-62
2023/05/22 04:24:08;;;;;;;13.25;12.65;;;;;;;;;;5032427;28;20518;-61
2023/05/22 04:26:33;;;;;;;12.02;11.52;;;;;;;;;;5029848;28;20036;-61
2023/05/22 04:28:59;;;;;;;12.63;12.02;;;;;;;;;;5028097;28;20021;-61
2023/05/22 04:31:24;;;;;;;12.60;12.00;;;;;;;;;;5025777;28;20027;-62
2023/05/22 04:33:50;;;;;;;11.90;11.40;;;;;;;;;;5033362;28;20025;-61
2023/05/22 04:36:16;;;;;;;11.70;11.20;;;;;;;;;;5033363;28;20538;-62
2023/05/22 04:38:43;;;;;;;12.23;11.73;;;;;;;;;;5028123;28;20079;-66
2023/05/22 04:41:09;;;;;;;12.40;11.85;;;;;;;;;;5026224;28;20041;-66
2023/05/22 04:43:35;;;;;;;11.63;11.13;;;;;;;;;;5029187;28;20018;-66
2023/05/22 04:46:00;;;;;;;12.00;11.50;;;;;;;;;;5024354;28;20025;-66
2023/05/22 04:48:26;;;;;;;11.75;11.25;;;;;;;;;;5027088;28;20040;-66
2023/05/22 04:50:53;;;;;;;11.80;11.30;;;;;;;;;;5033586;28;20034;-66
2023/05/22 04:53:18;;;;;;;11.80;11.30;;;;;;;;;;5030258;28;20049;-65
2023/05/22 04:55:44;;;;;;;12.20;11.70;;;;;;;;;;5026982;28;20465;-66
2023/05/22 04:58:10;;;;;;;12.80;12.20;;;;;;;;;;5026266;28;20031;-65
2023/05/22 05:00:35;;;;;;;12.55;11.95;;;;;;;;;;5030734;28;20116;-65
2023/05/22 05:03:01;;;;;;;11.90;11.40;;;;;;;;;;5028672;28;20472;-65
2023/05/22 05:05:26;;;;;;;12.13;11.63;;;;;;;;;;5031053;28;20386;-66
2023/05/22 05:07:52;;;;;;;12.07;11.57;;;;;;;;;;5026318;28;20046;-66
2023/05/22 05:10:18;;;;;;;11.75;11.25;;;;;;;;;;5024264;28;20092;-65
2023/05/22 05:12:43;;;;;;;11.95;11.45;;;;;;;;;;5032874;28;20424;-66
2023/05/22 05:15:09;;;;;;;12.00;11.50;;;;;;;;;;5027154;28;20091;-66
2023/05/22 05:17:34;;;;;;;12.30;11.80;;;;;;;;;;5025927;28;20023;-65
2023/05/22 05:19:59;;;;;;;12.07;11.57;;;;;;;;;;5027088;28;20045;-65
2023/05/22 05:22:25;;;;;;;11.70;11.20;;;;;;;;;;5030050;28;20087;-65
2023/05/22 05:24:50;;;;;;;11.87;11.37;;;;;;;;;;5025228;28;20548;-66
2023/05/22 05:27:15;;;;;;;12.10;11.60;;;;;;;;;;5026003;28;20281;-66
2023/05/22 05:29:41;;;;;;;12.00;11.50;;;;;;;;;;5029688;28;20009;-66
2023/05/22 05:32:07;;;;;;;11.77;11.27;;;;;;;;;;5032911;28;20389;-67
2023/05/22 05:34:32;;;;;;;11.98;11.48;;;;;;;;;;5031763;28;20029;-65
2023/05/22 05:36:58;;;;;;;11.70;11.20;;;;;;;;;;5025519;28;20421;-66
2023/05/22 05:39:23;;;;;;;12.05;11.55;;;;;;;;;;5024439;28;20100;-68
2023/05/22 05:41:48;;;;;;;11.67;11.17;;;;;;;;;;5024195;28;20034;-67
2023/05/22 05:44:14;;;;;;;11.70;11.20;;;;;;;;;;5019578;28;20274;-67
2023/05/22 05:46:39;;;;;;;12.10;11.60;;;;;;;;;;5028442;28;20318;-64
2023/05/22 05:49:10;;;;;;;12.37;11.87;;;;;;;;;;5024590;28;20396;-64
2023/05/22 05:51:36;;;;;;;12.15;11.65;;;;;;;;;;5029115;28;20017;-63
2023/05/22 05:54:02;;;;;;;12.45;11.85;;;;;;;;;;5028250;28;20021;-64
2023/05/22 05:56:27;;;;;;;11.98;11.48;;;;;;;;;;5026441;28;20385;-64
2023/05/22 05:58:52;;;;;;;12.25;11.75;;;;;;;;;;5022966;28;20029;-64
2023/05/22 06:01:18;;;;;;;12.10;11.60;;;;;;;;;;5023590;28;20025;-64
2023/05/22 06:03:43;;;;;;;11.95;11.45;;;;;;;;;;5023929;28;20630;-64
2023/05/22 06:06:09;;;;;;;12.10;11.60;;;;;;;;;;5024228;28;20493;-64
2023/05/22 06:08:34;;;;;;;12.15;11.65;;;;;;;;;;5026055;28;20259;-64
2023/05/22 06:11:00;;;;;;;11.90;11.40;;;;;;;;;;5027266;28;20029;-64
2023/05/22 06:13:26;;;;;;;12.25;11.75;;;;;;;;;;5022567;28;20036;-63
2023/05/22 06:15:51;;;;;;;11.95;11.45;;;;;;;;;;5032165;28;20219;-64
2023/05/22 06:18:16;;;;;;;11.90;11.40;;;;;;;;;;5026121;28;20064;-64
2023/05/22 06:20:42;;;;;;;12.60;12.00;;;;;;;;;;5030556;28;20267;-64
2023/05/22 06:23:07;;;;;;;11.93;11.43;;;;;;;;;;5031096;28;20025;-64
2023/05/22 06:25:33;;;;;;;11.95;11.45;;;;;;;;;;5031146;28;20258;-62
2023/05/22 06:27:59;;;;;;;11.98;11.48;;;;;;;;;;5025744;28;20503;-63
2023/05/22 06:30:25;;;;;;;11.77;11.27;;;;;;;;;;5026812;28;20029;-62
2023/05/22 06:32:51;;;;;;;11.80;11.30;;;;;;;;;;5026173;28;20388;-64
2023/05/22 06:35:17;;;;;;;12.20;11.70;;;;;;;;;;5027045;28;20103;-63
2023/05/22 06:37:43;;;;;;;11.85;11.35;;;;;;;;;;5029799;28;20033;-64
2023/05/22 06:40:09;;;;;;;12.05;11.55;;;;;;;;;;5028687;28;20393;-64
2023/05/22 06:42:34;;;;;;;11.73;11.23;;;;;;;;;;5029703;28;20052;-63
2023/05/22 06:44:59;;;;;;;12.20;11.70;;;;;;;;;;5031639;28;20048;-60
2023/05/22 06:47:26;;;;;;;11.93;11.43;;;;;;;;;;5022390;28;20105;-64
2023/05/22 06:49:52;;;;;;;11.88;11.38;;;;;;;;;;5022787;28;20135;-66
2023/05/22 06:52:17;;;;;;;12.00;11.50;;;;;;;;;;5027778;28;20018;-64
2023/05/22 06:54:43;;;;;;;12.87;12.27;;;;;;;;;;5027824;28;20435;-64
2023/05/22 06:57:09;;;;;;;11.85;11.35;;;;;;;;;;5029051;28;20781;-65
2023/05/22 06:59:35;;;;;;;12.00;11.50;;;;;;;;;;5037867;28;20032;-68
2023/05/22 07:02:00;;;;;;;12.02;11.52;;;;;;;;;;5028258;28;20045;-67
2023/05/22 07:04:25;;;;;;;12.27;11.77;;;;;;;;;;5030042;28;20041;-65
2023/05/22 07:06:51;;;;;;;11.97;11.47;;;;;;;;;;5029856;28;20030;-64
2023/05/22 07:09:17;;;;;;;11.85;11.35;;;;;;;;;;5032439;28;20266;-63
2023/05/22 07:11:43;;;;;;;12.20;11.70;;;;;;;;;;5025062;28;20120;-64
2023/05/22 07:14:08;;;;;;;11.60;11.10;;;;;;;;;;5031350;28;20112;-64
2023/05/22 07:16:35;;;;;;;12.30;11.80;;;;;;;;;;5025548;28;20297;-67
2023/05/22 07:19:02;;;;;;;11.80;11.30;;;;;;;;;;5030461;28;20653;-69
2023/05/22 07:21:29;;;;;;;12.25;11.75;;;;;;;;;;5029876;28;20097;-66
2023/05/22 07:23:54;;;;;;;11.95;11.45;;;;;;;;;;5030358;28;20013;-64
2023/05/22 07:26:21;;;;;;;11.87;11.37;;;;;;;;;;5030045;28;20099;-64
2023/05/22 07:28:47;;;;;;;12.25;11.75;;;;;;;;;;5033610;28;20646;-67
2023/05/22 07:31:12;;;;;;;11.93;11.43;;;;;;;;;;5031873;28;20033;-65
2023/05/22 07:33:37;;;;;;;12.03;11.53;;;;;;;;;;5029932;28;20025;-65
2023/05/22 07:36:03;;;;;;;11.77;11.27;;;;;;;;;;5023381;28;20489;-66
2023/05/22 07:38:28;;;;;;;12.30;11.77;;;;;;;;;;5030130;28;20341;-66
2023/05/22 07:40:53;;;;;;;12.38;11.82;;;;;;;;;;5024950;28;20520;-65
2023/05/22 07:43:19;;;;;;;12.83;12.23;;;;;;;;;;5024926;28;21226;-65
2023/05/22 07:45:44;;;;;;;12.48;11.88;;;;;;;;;;5023233;28;20774;-65
2023/05/22 07:48:10;;;;;;;12.60;12.00;;;;;;;;;;5025883;28;20022;-65
2023/05/22 07:50:35;;;;;;;12.60;12.00;;;;;;;;;;5027078;28;20037;-67
2023/05/22 07:53:03;;;;;;;12.57;11.97;;;;;;;;;;5025771;28;20026;-65
2023/05/22 07:55:28;;;;;;;12.70;12.10;;;;;;;;;;5023032;28;20270;-69
2023/05/22 07:57:54;;;;;;;12.38;11.77;;;;;;;;;;5027736;28;20405;-69
2023/05/22 08:00:20;;;;;;;12.55;11.95;;;;;;;;;;5030546;28;20017;-66
2023/05/22 08:02:46;;;;;;;12.75;12.15;;;;;;;;;;5026160;28;20020;-68
2023/05/22 08:05:11;;;;;;;13.00;12.40;;;;;;;;;;5025421;28;20037;-65
2023/05/22 08:07:36;;;;;;;13.23;12.63;;;;;;;;;;5066157;28;20085;-63
2023/05/22 08:10:03;;;;;;;13.18;12.57;;;;;;;;;;5025112;28;20268;-66
2023/05/22 08:12:28;;;;;;;12.95;12.35;;;;;;;;;;5026858;28;20021;-64
2023/05/22 08:14:53;;;;;;;13.48;12.82;;;;;;;;;;5025522;28;20079;-65
2023/05/22 08:17:19;;;;;;;13.10;12.50;;;;;;;;;;5027835;28;20120;-63
2023/05/22 08:19:45;;;;;;;13.55;12.85;;;;;;;;;;5027700;28;20277;-64
2023/05/22 08:22:10;;;;;;;13.27;12.68;;;;;;;;;;5032043;28;20120;-65
2023/05/22 08:24:35;;;;;;;13.45;12.77;;;;;;;;;;5027671;28;20503;-67
2023/05/22 08:27:00;;;;;;;12.90;12.30;;;;;;;;;;5034017;28;20040;-66
2023/05/22 08:29:27;;;;;;;13.18;12.57;;;;;;;;;;5038431;28;20043;-66
2023/05/22 08:31:52;;;;;;;13.00;12.40;;;;;;;;;;5028233;28;20033;-67
2023/05/22 08:34:18;;;;;;;13.10;12.50;;;;;;;;;;5028620;28;20072;-64
2023/05/22 08:36:43;;;;;;;14.40;13.70;;;;;;;;;;5026427;28;20137;-65
2023/05/22 08:39:09;;;;;;;12.95;12.35;;;;;;;;;;5028003;28;20035;-64
2023/05/22 08:41:34;;;;;;;13.88;13.18;;;;;;;;;;5024619;28;20025;-66
2023/05/22 08:44:00;;;;;;;13.32;12.65;;;;;;;;;;5028464;28;20458;-65
2023/05/22 08:46:26;;;;;;;13.10;12.50;;;;;;;;;;5023148;28;20366;-66
2023/05/22 08:48:55;;;;;;;12.85;12.25;;;;;;;;;;5024458;28;20021;-66
2023/05/22 08:51:21;;;;;;;13.75;13.05;;;;;;;;;;5025913;28;20030;-66
2023/05/22 08:53:50;;;;;;;13.82;13.13;;;;;;;;;;5018099;28;20512;-71
2023/05/22 08:56:16;;;;;;;13.07;12.48;;;;;;;;;;5022501;28;20052;-70
2023/05/22 08:58:41;;;;;;;13.40;12.75;;;;;;;;;;5030022;28;20473;-71
2023/05/22 09:01:07;;;;;;;13.52;12.82;;;;;;;;;;5023870;28;20306;-71
2023/05/22 09:03:34;;;;;;;14.00;13.30;;;;;;;;;;5026066;28;20017;-71
2023/05/22 09:06:00;;;;;;;13.07;12.48;;;;;;;;;;5021828;28;20112;-70
2023/05/22 09:08:27;;;;;;;14.43;13.73;;;;;;;;;;5024560;28;20097;-69
2023/05/22 09:10:54;;;;;;;13.48;12.77;;;;;;;;;;5014403;28;20021;-65
2023/05/22 09:13:24;;;;;;;13.15;12.55;;;;;;;;;;5023554;28;20049;-66
2023/05/22 09:15:50;;;;;;;13.55;12.85;;;;;;;;;;5028979;28;20013;-66
2023/05/22 09:18:15;;;;;;;13.48;12.77;;;;;;;;;;5025903;28;20472;-65
2023/05/22 09:20:40;;;;;;;13.50;12.80;;;;;;;;;;5021056;28;20037;-65
2023/05/22 09:23:16;;;;;;;14.20;13.50;;;;;;;;;;5021145;28;20324;-66
2023/05/22 09:25:42;;;;;;;13.30;12.68;;;;;;;;;;5021633;28;20100;-65
2023/05/22 09:28:07;;;;;;;13.73;13.02;;;;;;;;;;5027133;28;20485;-64
2023/05/22 09:30:33;;;;;;;12.82;12.23;;;;;;;;;;5023344;28;20037;-65
2023/05/22 09:32:59;;;;;;;13.35;12.70;;;;;;;;;;5021240;28;20041;-66
2023/05/22 09:35:26;;;;;;;13.20;12.55;;;;;;;;;;5025880;28;20029;-66
2023/05/22 09:37:51;;;;;;;13.27;12.60;;;;;;;;;;5024865;28;20020;-67
2023/05/22 09:40:17;;;;;;;13.05;12.45;;;;;;;;;;5023370;28;20021;-66
2023/05/22 09:42:43;;;;;;;13.80;13.10;;;;;;;;;;5023468;28;20029;-64
2023/05/22 09:45:09;;;;;;;13.60;12.90;;;;;;;;;;5015982;28;20531;-66
2023/05/22 09:47:35;;;;;;;13.35;12.65;;;;;;;;;;5022627;28;20045;-71
2023/05/22 09:50:03;;;;;;;12.98;12.38;;;;;;;;;;5024256;28;20031;-72
2023/05/22 09:52:31;;;;;;;13.32;12.63;;;;;;;;;;5029892;28;20053;-62
2023/05/22 09:54:57;;;;;;;12.55;11.95;;;;;;;;;;5024193;28;20018;-63
2023/05/22 09:57:23;;;;;;;13.60;12.90;;;;;;;;;;5025091;28;20044;-62
2023/05/22 09:59:53;;;;;;;12.70;12.10;;;;;;;;;;5023926;28;20056;-63
2023/05/22 10:02:21;;;;;;;12.60;12.00;;;;;;;;;;5021175;28;20018;-62
2023/05/22 10:04:47;;;;;;;12.95;12.35;;;;;;;;;;5020248;28;20140;-63
2023/05/22 10:07:13;;;;;;;13.07;12.45;;;;;;;;;;5021554;28;20029;-62
2023/05/22 10:09:39;;;;;;;12.50;11.90;;;;;;;;;;5020706;28;20037;-62
2023/05/22 10:12:06;;;;;;;14.15;13.43;;;;;;;;;;5017872;28;21227;-63
2023/05/22 10:14:33;;;;;;;14.55;13.80;;;;;;;;;;5019600;28;20116;-63
2023/05/22 10:17:03;;;;;;;13.63;12.95;;;;;;;;;;5018427;28;20067;-64
2023/05/22 10:19:31;;;;;;;13.32;12.65;;;;;;;;;;5017440;28;20029;-62
2023/05/22 10:21:56;;;;;;;12.70;12.10;;;;;;;;;;5019400;28;20048;-62
2023/05/22 10:24:23;;;;;;;11.65;11.15;;;;;;;;;;5021679;28;20485;-63
2023/05/22 10:26:49;;;;;;;12.13;11.52;;;;;;;;;;5022527;28;20065;-62
2023/05/22 10:29:17;;;;;;;13.55;12.85;;;;;;;;;;5022752;28;20067;-62
2023/05/22 10:32:01;;;;;;;14.60;13.82;;;;;;;;;;5018629;28;20025;-64
2023/05/22 10:34:50;;;;;;;13.30;12.60;;;;;;;;;;5023755;28;20496;-64
2023/05/22 10:37:34;;;;;;;14.10;13.40;;;;;;;;;;5021717;28;20056;-67
2023/05/22 10:40:09;;;;;;;12.82;12.23;;;;;;;;;;5013752;28;20037;-70
2023/05/22 10:42:36;;;;;;;13.85;13.15;;;;;;;;;;5020622;28;20041;-67
2023/05/22 10:45:02;;;;;;;13.88;13.18;;;;;;;;;;5015553;28;20025;-66
2023/05/22 10:47:27;;;;;;;14.93;14.13;;;;;;;;;;5018724;28;20028;-65
2023/05/22 10:50:22;;;;;;;14.10;13.40;;;;;;;;;;5014128;28;20033;-71
2023/05/22 10:52:47;;;;;;;13.95;13.25;;;;;;;;;;5007291;28;20041;-71
2023/05/22 10:55:12;;;;;;;13.70;13.00;;;;;;;;;;5015649;28;20037;-70
2023/05/22 10:57:38;;;;;;;13.38;12.70;;;;;;;;;;5018596;28;20021;-71
2023/05/22 11:00:08;;;;;;;14.43;13.65;;;;;;;;;;5020188;28;20141;-71
2023/05/22 11:02:37;;;;;;;14.88;14.07;;;;;;;;;;5022307;28;20029;-67
2023/05/22 11:05:17;;;;;;;13.52;12.82;;;;;;;;;;5023065;28;20060;-68
2023/05/22 11:07:43;;;;;;;13.35;12.65;;;;;;;;;;5020656;28;20045;-68
2023/05/22 11:10:09;;;;;;;13.85;13.15;;;;;;;;;;5029599;28;20418;-63
2023/05/22 11:12:36;;;;;;;14.10;13.40;;;;;;;;;;5026591;28;20030;-65
2023/05/22 11:15:04;;;;;;;13.05;12.45;;;;;;;;;;5026990;28;20040;-70
2023/05/22 11:17:30;;;;;;;13.35;12.65;;;;;;;;;;5022734;28;20044;-71
2023/05/22 11:19:57;;;;;;;12.40;11.80;;;;;;;;;;5033052;28;20029;-71
2023/05/22 11:22:22;;;;;;;12.43;11.82;;;;;;;;;;5029269;28;20033;-71
2023/05/22 11:24:48;;;;;;;12.75;12.15;;;;;;;;;;5030741;28;20025;-71
2023/05/22 11:27:13;;;;;;;12.18;11.57;;;;;;;;;;5029356;28;20470;-71
2023/05/22 11:29:39;;;;;;;13.75;13.05;;;;;;;;;;5026292;28;20021;-64
2023/05/22 11:32:06;;;;;;;14.80;14.00;;;;;;;;;;5018015;28;20247;-64
2023/05/22 11:34:32;;;;;;;13.80;13.10;;;;;;;;;;5046116;28;20064;-72
2023/05/22 11:36:58;;;;;;;12.68;12.07;;;;;;;;;;5024551;28;20030;-72
2023/05/22 11:39:24;;;;;;;12.90;12.30;;;;;;;;;;5018109;28;20025;-66
2023/05/22 11:41:49;;;;;;;14.20;13.50;;;;;;;;;;5026652;28;20017;-66
2023/05/22 11:44:15;;;;;;;13.85;13.15;;;;;;;;;;5027578;28;20032;-65
2023/05/22 11:46:40;;;;;;;14.57;13.82;;;;;;;;;;5026222;28;20025;-66
2023/05/22 11:49:07;;;;;;;13.80;13.10;;;;;;;;;;5025702;28;20033;-66
2023/05/22 11:51:33;;;;;;;14.93;14.13;;;;;;;;;;5024510;28;20485;-67
2023/05/22 11:53:58;;;;;;;13.60;12.90;;;;;;;;;;5025881;28;20041;-65
2023/05/22 11:56:23;;;;;;;13.48;12.77;;;;;;;;;;5020309;28;20071;-65
2023/05/22 11:58:49;;;;;;;13.40;12.70;;;;;;;;;;5021423;28;20018;-64
2023/05/22 12:01:15;;;;;;;13.25;12.60;;;;;;;;;;5022058;28;20025;-67
2023/05/22 12:03:40;;;;;;;13.13;12.50;;;;;;;;;;5023216;28;20405;-67
2023/05/22 12:06:07;;;;;;;13.30;12.60;;;;;;;;;;5024811;28;20492;-68
2023/05/22 12:08:32;;;;;;;13.43;12.73;;;;;;;;;;5022244;28;20541;-63
2023/05/22 12:10:58;;;;;;;13.40;12.70;;;;;;;;;;5022796;28;20063;-65
2023/05/22 12:13:23;;;;;;;14.00;13.30;;;;;;;;;;5024670;28;20048;-71
2023/05/22 12:15:48;;;;;;;13.25;12.60;;;;;;;;;;5020665;28;20079;-72
2023/05/22 12:18:16;;;;;;;13.57;12.88;;;;;;;;;;5025091;28;20034;-71
2023/05/22 12:20:44;;;;;;;13.88;13.18;;;;;;;;;;5021350;28;20508;-71
2023/05/22 12:23:10;;;;;;;13.55;12.85;;;;;;;;;;5026718;28;20453;-71
2023/05/22 12:25:36;;;;;;;13.85;13.15;;;;;;;;;;5018016;28;20113;-66
2023/05/22 12:28:01;;;;;;;12.98;12.38;;;;;;;;;;5026083;28;20030;-66
2023/05/22 12:30:26;;;;;;;12.55;11.95;;;;;;;;;;5028698;28;20040;-67
2023/05/22 12:32:52;;;;;;;13.68;12.98;;;;;;;;;;5034701;28;20025;-67
2023/05/22 12:35:17;;;;;;;12.75;12.15;;;;;;;;;;5026103;28;20051;-69
2023/05/22 12:37:49;;;;;;;12.90;12.30;;;;;;;;;;5032059;28;20053;-69
2023/05/22 12:40:15;;;;;;;14.10;13.40;;;;;;;;;;5024904;28;20097;-69
2023/05/22 12:42:40;;;;;;;13.23;12.60;;;;;;;;;;5024650;28;20116;-70
2023/05/22 12:45:06;;;;;;;13.55;12.85;;;;;;;;;;5023715;28;20025;-70
2023/05/22 12:47:31;;;;;;;13.82;13.13;;;;;;;;;;5020618;28;20057;-69
2023/05/22 12:49:56;;;;;;;12.90;12.30;;;;;;;;;;5020855;28;20033;-67
2023/05/22 12:52:22;;;;;;;13.20;12.57;;;;;;;;;;5023122;28;20022;-63
2023/05/22 12:54:47;;;;;;;12.80;12.20;;;;;;;;;;5020421;28;20087;-65
2023/05/22 12:57:12;;;;;;;14.18;13.48;;;;;;;;;;5023416;28;20033;-65
2023/05/22 12:59:37;;;;;;;13.05;12.45;;;;;;;;;;5025057;28;20037;-65
2023/05/22 13:02:04;;;;;;;13.10;12.50;;;;;;;;;;5019069;28;22181;-65
2023/05/22 13:04:29;;;;;;;13.65;12.95;;;;;;;;;;5020303;28;20295;-66
2023/05/22 13:06:54;;;;;;;13.93;13.23;;;;;;;;;;5024298;28;20219;-69
2023/05/22 13:09:20;;;;;;;13.15;12.55;;;;;;;;;;5025889;28;20032;-66
2023/05/22 13:11:46;;;;;;;12.68;12.07;;;;;;;;;;5019075;28;20542;-64
2023/05/22 13:14:12;;;;;;;13.60;12.90;;;;;;;;;;5024017;28;20127;-66
2023/05/22 13:16:37;;;;;;;14.10;13.40;;;;;;;;;;5032514;28;20060;-65
2023/05/22 13:19:02;;;;;;;13.53;12.83;;;;;;;;;;5026340;28;20121;-67
2023/05/22 13:21:28;;;;;;;13.15;12.55;;;;;;;;;;5021327;28;20281;-65
2023/05/22 13:23:53;;;;;;;12.30;11.70;;;;;;;;;;5019269;28;20036;-68
2023/05/22 13:26:18;;;;;;;13.38;12.68;;;;;;;;;;5030692;28;20515;-65
2023/05/22 13:28:44;;;;;;;12.40;11.80;;;;;;;;;;5030277;28;20513;-67
2023/05/22 13:31:09;;;;;;;14.07;13.38;;;;;;;;;;5020454;28;20038;-66
2023/05/22 13:33:34;;;;;;;13.40;12.70;;;;;;;;;;5021417;28;20378;-69
2023/05/22 13:36:00;;;;;;;13.82;13.13;;;;;;;;;;5019152;28;20033;-71
2023/05/22 13:38:25;;;;;;;12.50;11.90;;;;;;;;;;5025102;28;20032;-67
2023/05/22 13:40:50;;;;;;;13.75;13.05;;;;;;;;;;5019245;28;20017;-69
2023/05/22 13:43:16;;;;;;;14.45;13.73;;;;;;;;;;5023889;28;20473;-68
2023/05/22 13:45:41;;;;;;;12.95;12.35;;;;;;;;;;5022627;28;20143;-67
2023/05/22 13:48:07;;;;;;;12.82;12.23;;;;;;;;;;5024585;28;20025;-68
2023/05/22 13:50:32;;;;;;;12.43;11.82;;;;;;;;;;5023767;28;20041;-65
2023/05/22 13:52:57;;;;;;;13.13;12.52;;;;;;;;;;5019387;28;20021;-66
2023/05/22 13:55:23;;;;;;;12.98;12.38;;;;;;;;;;5023428;28;20128;-61
2023/05/22 13:57:48;;;;;;;13.02;12.43;;;;;;;;;;5019861;28;20563;-61
2023/05/22 14:00:14;;;;;;;12.65;12.05;;;;;;;;;;5024412;28;20113;-60
2023/05/22 14:02:39;;;;;;;13.40;12.70;;;;;;;;;;5022632;28;20400;-61
2023/05/22 14:05:05;;;;;;;12.60;12.00;;;;;;;;;;5021029;28;20425;-61
2023/05/22 14:07:31;;;;;;;13.35;12.65;;;;;;;;;;5026331;28;20036;-60
2023/05/22 14:09:56;;;;;;;13.45;12.75;;;;;;;;;;5020541;28;20032;-60
2023/05/22 14:12:21;;;;;;;13.10;12.50;;;;;;;;;;5020346;28;20395;-60
2023/05/22 14:14:46;;;;;;;12.65;12.05;;;;;;;;;;5027842;28;20021;-61